createdAt,value
2022-08-11T00:02:07.000Z,100867.50
2022-08-11T00:07:19.143Z,100868.28
2022-08-11T00:12:22.391Z,100870.97
2022-08-11T00:17:30.950Z,100870.72
2022-08-11T00:22:35.173Z,100878.25
2022-08-11T00:27:40.890Z,100882.44
2022-08-11T00:32:53.282Z,100877.13
2022-08-11T00:37:58.006Z,100875.91
2022-08-11T00:43:20.212Z,100879.59
2022-08-11T00:48:30.741Z,100878.94
2022-08-11T00:53:47.697Z,100875.13
2022-08-11T00:59:34.136Z,100878.81
2022-08-11T01:05:05.669Z,100887.56
2022-08-11T01:10:27.353Z,100880.16
2022-08-11T01:16:12.697Z,100877.81
2022-08-11T01:22:06.541Z,100878.16
2022-08-11T01:27:28.461Z,100881.09
2022-08-11T01:33:10.160Z,100873.81
2022-08-11T01:38:51.193Z,100870.03
2022-08-11T01:44:31.785Z,100872.63
2022-08-11T01:50:08.328Z,100875.31
2022-08-11T01:55:24.029Z,100864.47
2022-08-11T02:00:32.457Z,100871.88
2022-08-11T02:05:52.148Z,100873.81
2022-08-11T02:11:25.533Z,100873.97
2022-08-11T02:16:40.993Z,100864.56
2022-08-11T02:22:08.502Z,100873.66
2022-08-11T02:27:19.817Z,100869.00
2022-08-11T02:32:48.439Z,100870.34
2022-08-11T02:38:09.822Z,100867.25
2022-08-11T02:43:30.211Z,100864.66
2022-08-11T02:49:12.258Z,100873.03
2022-08-11T02:54:24.880Z,100874.00
2022-08-11T02:59:51.469Z,100874.00
2022-08-11T03:05:03.931Z,100875.69
2022-08-11T03:10:14.623Z,100878.28
2022-08-11T03:15:44.606Z,100885.03
2022-08-11T03:20:58.715Z,100881.28
2022-08-11T03:26:06.852Z,100882.41
2022-08-11T03:31:26.181Z,100876.59
2022-08-11T03:37:16.680Z,100883.16
2022-08-11T03:42:33.444Z,100888.47
2022-08-11T03:48:10.857Z,100894.09
2022-08-11T03:53:28.033Z,100895.84
2022-08-11T03:59:07.574Z,100901.97
2022-08-11T04:04:39.392Z,100892.56
2022-08-11T04:10:33.860Z,100894.03
2022-08-11T04:16:12.483Z,100893.94
2022-08-11T04:21:37.808Z,100897.53
2022-08-11T04:27:22.701Z,100896.00
2022-08-11T04:32:48.009Z,100888.59
2022-08-11T04:38:44.096Z,100903.19
2022-08-11T04:44:25.375Z,100902.09
2022-08-11T04:50:23.450Z,100898.84
2022-08-11T04:56:20.977Z,100903.53
2022-08-11T05:01:42.743Z,100905.84
2022-08-11T05:07:13.042Z,100902.34
2022-08-11T05:12:30.960Z,100913.88
2022-08-11T05:17:56.346Z,100909.88
2022-08-11T05:23:22.644Z,100909.88
2022-08-11T05:28:51.863Z,100914.09
2022-08-11T05:34:20.500Z,100914.91
2022-08-11T05:39:44.210Z,100914.25
2022-08-11T05:45:15.401Z,100919.44
2022-08-11T05:50:37.349Z,100920.94
2022-08-11T05:56:03.243Z,100918.63
2022-08-11T06:01:08.870Z,100924.31
2022-08-11T06:06:12.116Z,100922.94
2022-08-11T06:11:18.536Z,100929.88
2022-08-11T06:16:44.372Z,100926.75
2022-08-11T06:21:48.843Z,100931.00
2022-08-11T06:32:18.765Z,100930.50
2022-08-11T06:37:36.225Z,100935.06
2022-08-11T06:42:53.120Z,100938.72
2022-08-11T06:48:01.058Z,100937.72
2022-08-11T06:53:07.161Z,100938.97
2022-08-11T06:58:33.348Z,100937.38
2022-08-11T07:03:43.953Z,100938.34
2022-08-11T07:09:27.102Z,100941.63
2022-08-11T07:14:50.671Z,100928.16
2022-08-11T07:20:17.374Z,100920.41
2022-08-11T07:25:40.128Z,100927.06
2022-08-11T07:30:44.824Z,100913.94
2022-08-11T07:35:55.537Z,100916.69
2022-08-11T07:41:00.065Z,100916.34
2022-08-11T07:46:22.936Z,100919.31
2022-08-11T07:51:44.290Z,100921.41
2022-08-11T07:56:55.522Z,100914.50
2022-08-11T08:02:31.425Z,100917.47
2022-08-11T08:07:56.584Z,100914.91
2022-08-11T08:13:17.813Z,100913.53
2022-08-11T08:18:26.329Z,100907.63
2022-08-11T08:23:34.287Z,100913.47
2022-08-11T08:28:37.918Z,100907.56
2022-08-11T08:33:42.998Z,100901.66
2022-08-11T08:38:51.075Z,100896.56
2022-08-11T08:44:05.913Z,100891.59
2022-08-11T08:49:26.855Z,100888.44
2022-08-11T08:54:37.440Z,100883.47
2022-08-11T08:59:48.831Z,100873.66
2022-08-11T09:04:53.414Z,100873.75
2022-08-11T09:10:00.161Z,100875.59
2022-08-11T09:15:08.021Z,100872.56
2022-08-11T09:20:14.046Z,100864.19
2022-08-11T09:25:37.534Z,100864.63
2022-08-11T09:30:43.759Z,100867.09
2022-08-11T09:35:48.471Z,100860.13
2022-08-11T09:40:56.275Z,100856.97
2022-08-11T09:46:01.852Z,100858.59
2022-08-11T09:51:06.208Z,100864.44
2022-08-11T09:56:35.688Z,100857.03
2022-08-11T10:01:43.921Z,100848.19
2022-08-11T10:07:04.847Z,100849.56
2022-08-11T10:12:12.084Z,100834.38
2022-08-11T10:17:17.101Z,100833.63
2022-08-11T10:22:37.799Z,100831.72
2022-08-11T10:28:32.973Z,100824.34
2022-08-11T10:33:47.600Z,100824.41
2022-08-11T10:39:02.399Z,100825.91
2022-08-11T10:44:09.065Z,100817.03
2022-08-11T10:49:12.349Z,100805.47
2022-08-11T10:54:34.408Z,100798.84
2022-08-11T10:59:39.242Z,100797.72
2022-08-11T11:04:58.254Z,100794.78
2022-08-11T11:10:05.018Z,100790.00
2022-08-11T11:15:28.268Z,100786.16
2022-08-11T11:20:38.625Z,100773.25
2022-08-11T11:26:27.574Z,100771.41
2022-08-11T11:31:46.942Z,100770.66
2022-08-11T11:36:51.485Z,100765.50
2022-08-11T11:41:56.507Z,100768.84
2022-08-11T11:47:02.515Z,100769.81
2022-08-11T11:52:07.756Z,100747.66
2022-08-11T11:57:29.556Z,100745.44
2022-08-11T12:02:34.461Z,100746.44
2022-08-11T12:08:05.099Z,100743.72
2022-08-11T12:13:34.863Z,100742.72
2022-08-11T12:18:40.954Z,100733.72
2022-08-11T12:24:04.722Z,100716.75
2022-08-11T12:29:09.391Z,100722.16
2022-08-11T12:34:15.253Z,100711.31
2022-08-11T12:40:15.840Z,100710.19
2022-08-11T12:45:29.673Z,100699.34
2022-08-11T12:50:52.993Z,100691.22
2022-08-11T12:56:15.615Z,100690.13
2022-08-11T13:01:36.578Z,100697.03
2022-08-11T13:06:42.482Z,100692.31
2022-08-11T13:12:04.769Z,100674.69
2022-08-11T13:17:40.249Z,100672.69
2022-08-11T13:22:50.298Z,100665.31
2022-08-11T13:27:59.650Z,100660.47
2022-08-11T13:33:06.344Z,100654.81
2022-08-11T13:38:18.476Z,100660.72
2022-08-11T13:43:24.504Z,100647.16
2022-08-11T13:48:28.262Z,100638.75
2022-08-11T13:53:33.725Z,100638.50
2022-08-11T13:58:40.026Z,100624.66
2022-08-11T14:04:30.552Z,100627.13
2022-08-11T14:09:11.588Z,100619.97
2022-08-11T14:14:20.134Z,100608.13
2022-08-11T14:19:26.255Z,100605.28
2022-08-11T14:24:30.779Z,100603.44
2022-08-11T14:29:48.850Z,100602.56
2022-08-11T14:34:52.484Z,100597.16
2022-08-11T14:40:02.823Z,100592.31
2022-08-11T14:45:57.853Z,100586.75
2022-08-11T14:50:58.341Z,100580.19
2022-08-11T14:56:16.776Z,100570.81
2022-08-11T15:01:37.470Z,100577.84
2022-08-11T15:06:40.654Z,100576.59
2022-08-11T15:12:02.784Z,100568.22
2022-08-11T15:17:09.951Z,100564.34
2022-08-11T15:22:30.220Z,100561.38
2022-08-11T15:27:53.118Z,100566.44
2022-08-11T15:33:14.991Z,100562.44
2022-08-11T15:38:21.041Z,100555.75
2022-08-11T15:43:48.216Z,100547.34
2022-08-11T15:48:57.226Z,100550.38
2022-08-11T15:54:08.957Z,100550.25
2022-08-11T15:59:41.916Z,100548.69
2022-08-11T16:04:48.204Z,100551.31
2022-08-11T16:09:59.607Z,100539.50
2022-08-11T16:15:25.169Z,100532.22
2022-08-11T16:20:30.406Z,100524.34
2022-08-11T16:27:04.998Z,100529.28
2022-08-11T16:31:10.763Z,100523.69
2022-08-11T16:36:34.417Z,100519.97
2022-08-11T16:41:57.397Z,100521.56
2022-08-11T16:47:03.566Z,100523.28
2022-08-11T16:52:11.067Z,100526.59
2022-08-11T16:57:35.819Z,100530.88
2022-08-11T17:03:03.764Z,100530.88
2022-08-11T17:08:26.549Z,100535.19
2022-08-11T17:13:36.183Z,100526.03
2022-08-11T17:18:46.634Z,100525.03
2022-08-11T17:23:54.827Z,100528.63
2022-08-11T17:29:00.428Z,100528.91
2022-08-11T17:34:23.357Z,100528.91
2022-08-11T17:39:30.576Z,100522.19
2022-08-11T17:44:52.970Z,100518.75
2022-08-11T17:50:09.190Z,100521.06
2022-08-11T17:55:51.938Z,100516.31
2022-08-11T18:00:58.432Z,100527.50
2022-08-11T18:06:16.245Z,100534.75
2022-08-11T18:12:11.240Z,100533.91
2022-08-11T18:17:18.470Z,100541.19
2022-08-11T18:22:43.202Z,100544.91
2022-08-11T18:28:06.352Z,100549.66
2022-08-11T18:39:11.494Z,100552.63
2022-08-11T18:44:33.452Z,100561.78
2022-08-11T18:50:03.965Z,100560.78
2022-08-11T18:55:35.252Z,100563.09
2022-08-11T19:00:57.350Z,100562.19
2022-08-11T19:06:38.376Z,100566.97
2022-08-11T19:12:04.728Z,100567.53
2022-08-11T19:17:44.683Z,100570.88
2022-08-11T19:23:07.874Z,100575.06
2022-08-11T19:28:30.632Z,100584.22
2022-08-11T19:34:02.776Z,100581.81
2022-08-11T19:39:32.951Z,100589.81
2022-08-11T19:44:55.316Z,100587.69
2022-08-11T19:50:21.894Z,100591.81
2022-08-11T19:55:46.397Z,100589.56
2022-08-11T20:01:08.659Z,100587.16
2022-08-11T20:06:31.311Z,100590.72
2022-08-11T20:11:55.699Z,100573.41
2022-08-11T20:17:18.511Z,100580.00
2022-08-11T20:22:39.456Z,100580.75
2022-08-11T20:28:03.215Z,100588.03
2022-08-11T20:33:27.135Z,100595.91
2022-08-11T20:38:49.823Z,100593.59
2022-08-11T20:44:12.470Z,100600.34
2022-08-11T20:49:50.399Z,100604.63
2022-08-11T20:55:19.160Z,100604.47
2022-08-11T21:00:47.473Z,100609.78
2022-08-11T21:06:11.125Z,100612.50
2022-08-11T21:11:33.612Z,100609.34
2022-08-11T21:16:55.434Z,100608.59
2022-08-11T21:22:21.321Z,100622.25
2022-08-11T21:27:51.952Z,100618.22
2022-08-11T21:33:13.427Z,100624.66
2022-08-11T21:38:36.897Z,100631.53
2022-08-11T21:43:59.215Z,100631.69
2022-08-11T21:49:20.932Z,100628.72
2022-08-11T21:54:43.808Z,100635.47
2022-08-11T22:00:10.981Z,100640.06
2022-08-11T22:05:34.754Z,100637.00
2022-08-11T22:10:57.263Z,100636.63
2022-08-11T22:16:18.997Z,100629.75
2022-08-11T22:22:02.691Z,100636.78
2022-08-11T22:27:23.616Z,100626.13
2022-08-11T22:32:45.172Z,100634.97
2022-08-11T22:38:06.504Z,100625.09
2022-08-11T22:43:28.569Z,100627.44
2022-08-11T22:48:50.272Z,100631.59
2022-08-11T22:54:13.713Z,100637.91
2022-08-11T22:59:37.555Z,100638.91
2022-08-11T23:04:59.070Z,100635.47
2022-08-11T23:10:19.799Z,100642.78
2022-08-11T23:15:42.545Z,100638.03
2022-08-11T23:21:04.913Z,100636.59
2022-08-11T23:26:26.005Z,100635.13
2022-08-11T23:31:52.914Z,100635.44
2022-08-11T23:37:13.867Z,100638.56
2022-08-11T23:42:36.034Z,100634.25
2022-08-11T23:48:00.384Z,100637.53
2022-08-11T23:53:21.414Z,100630.88
2022-08-11T23:58:42.012Z,100622.44
